Time;durP1;ratioP1;P1;durP2;ratioP2;P2;SDS_P1;SDS_P2;PMS_P1;PMS_P2;Temp;Humidity;BMP_temperature;BMP_pressure;BME280_temperature;BME280_humidity;BME280_pressure;Samples;Min_cycle;Max_cycle;Signal;HPM_P1;HPM_P2
2022/11/01 00:01:01;;;;;;;12.18;6.85;;;;;;;14.41;100.00;164332.78;5093914;28;20032;-66
2022/11/01 00:03:26;;;;;;;10.35;6.07;;;;;;;14.43;100.00;164338.22;5090518;28;20036;-66
2022/11/01 00:05:51;;;;;;;16.92;8.25;;;;;;;14.40;100.00;164330.13;5079358;28;20048;-65
2022/11/01 00:08:17;;;;;;;15.55;6.15;;;;;;;14.39;100.00;164328.75;5071623;28;20036;-65
2022/11/01 00:10:42;;;;;;;20.30;7.10;;;;;;;14.39;100.00;164327.41;5073470;28;20497;-65
2022/11/01 00:13:07;;;;;;;15.82;9.27;;;;;;;14.38;100.00;164324.72;5079708;28;20109;-65
2022/11/01 00:15:33;;;;;;;19.25;8.65;;;;;;;14.35;100.00;164317.94;5093639;28;20426;-64
2022/11/01 00:17:58;;;;;;;23.35;7.88;;;;;;;14.43;100.00;164338.22;5092248;28;20051;-65
2022/11/01 00:20:23;;;;;;;17.70;8.85;;;;;;;14.44;100.00;164342.25;5082998;28;20074;-65
2022/11/01 00:22:49;;;;;;;14.00;7.75;;;;;;;14.45;100.00;164343.66;5085614;28;20509;-65
2022/11/01 00:25:14;;;;;;;16.73;9.27;;;;;;;14.44;100.00;164340.94;5072941;28;20024;-64
2022/11/01 00:27:39;;;;;;;15.13;6.88;;;;;;;14.43;100.00;164338.22;5071767;28;20037;-65
2022/11/01 00:30:05;;;;;;;16.58;7.82;;;;;;;14.44;100.00;164340.94;5072454;28;20404;-64
2022/11/01 00:32:30;;;;;;;22.83;8.05;;;;;;;14.44;100.00;164340.94;5087537;28;20049;-65
2022/11/01 00:34:56;;;;;;;16.45;7.63;;;;;;;14.39;100.00;164328.75;5083250;28;20024;-65
2022/11/01 00:37:21;;;;;;;16.15;6.63;;;;;;;14.43;100.00;164338.22;5091155;28;20043;-64
2022/11/01 00:39:46;;;;;;;13.68;6.85;;;;;;;14.39;100.00;164328.75;5093205;28;20494;-65
2022/11/01 00:42:12;;;;;;;18.35;7.32;;;;;;;14.39;100.00;164327.41;5090547;28;20415;-65
2022/11/01 00:44:37;;;;;;;9.82;6.85;;;;;;;14.40;100.00;164330.13;5072578;28;20021;-65
2022/11/01 00:47:02;;;;;;;11.18;6.57;;;;;;;14.38;100.00;164324.72;5079316;28;20033;-66
2022/11/01 00:49:27;;;;;;;11.18;7.28;;;;;;;14.41;100.00;164332.78;5072633;28;20031;-66
2022/11/01 00:51:53;;;;;;;16.65;7.10;;;;;;;14.40;100.00;164330.13;5070794;28;20048;-66
2022/11/01 00:54:18;;;;;;;15.07;7.22;;;;;;;14.39;100.00;164327.41;5089794;28;20031;-65
2022/11/01 00:56:43;;;;;;;9.40;5.65;;;;;;;14.38;100.00;164324.72;5091356;28;20036;-65
2022/11/01 00:59:09;;;;;;;11.52;6.68;;;;;;;14.41;100.00;164332.78;5092149;28;20361;-65
2022/11/01 01:01:34;;;;;;;15.70;6.43;;;;;;;14.37;100.00;164322.00;5087878;28;20040;-65
2022/11/01 01:04:00;;;;;;;15.18;7.63;;;;;;;14.33;100.00;164312.53;5090864;28;20093;-66
2022/11/01 01:06:25;;;;;;;11.90;5.68;;;;;;;14.38;100.00;164324.72;5086326;28;20028;-66
2022/11/01 01:08:50;;;;;;;18.25;9.45;;;;;;;14.41;100.00;164332.78;5072184;28;20534;-66
2022/11/01 01:11:16;;;;;;;15.93;7.15;;;;;;;14.42;100.00;164335.50;5070930;28;20032;-67
2022/11/01 01:13:41;;;;;;;22.15;7.82;;;;;;;14.44;100.00;164342.25;5087999;28;20020;-66
2022/11/01 01:16:11;;;;;;;11.68;6.30;;;;;;;14.44;100.00;164340.94;5090911;28;20420;-66
2022/11/01 01:18:37;;;;;;;20.50;6.95;;;;;;;14.55;100.00;164370.72;5070743;28;20152;-66
2022/11/01 01:21:03;;;;;;;15.30;7.53;;;;;;;14.59;100.00;164381.53;5078707;28;20111;-66
2022/11/01 01:23:29;;;;;;;10.68;6.15;;;;;;;14.63;100.00;164389.66;5076450;28;20051;-66
2022/11/01 01:25:54;;;;;;;11.13;6.35;;;;;;;14.67;100.00;164400.50;5072260;28;20036;-66
2022/11/01 01:28:20;;;;;;;15.98;5.78;;;;;;;14.72;100.00;164414.03;5069684;28;20044;-67
2022/11/01 01:30:45;;;;;;;18.65;5.88;;;;;;;14.77;100.00;164427.59;5072608;28;20501;-67
2022/11/01 01:33:10;;;;;;;12.95;6.68;;;;;;;14.79;100.00;164431.66;5075182;28;20067;-67
2022/11/01 01:35:37;;;;;;;19.02;7.75;;;;;;;14.79;100.00;164432.97;5071517;28;20020;-67
2022/11/01 01:38:03;;;;;;;10.73;4.88;;;;;;;14.79;100.00;164432.97;5071642;28;20064;-66
2022/11/01 01:40:28;;;;;;;12.88;5.18;;;;;;;14.80;100.00;164435.69;5084407;28;20016;-66
2022/11/01 01:42:53;;;;;;;9.73;5.82;;;;;;;14.86;100.00;164451.91;5090030;28;20051;-66
2022/11/01 01:45:33;;;;;;;16.10;7.72;;;;;;;14.93;100.00;164468.19;5091484;28;20517;-66
2022/11/01 01:48:25;;;;;;;11.27;5.38;;;;;;;14.98;100.00;164481.72;5088447;28;20039;-66
2022/11/01 01:50:56;;;;;;;9.57;5.00;;;;;;;14.98;100.00;164483.06;5071204;28;20047;-67
2022/11/01 01:53:30;;;;;;;10.85;6.07;;;;;;;15.14;100.00;164525.03;5069604;28;20416;-66
2022/11/01 01:56:03;;;;;;;5.97;4.18;;;;;;;15.11;100.00;164516.91;5070049;28;20444;-67
2022/11/01 01:58:47;;;;;;;9.25;4.50;;;;;;;15.22;100.00;164545.31;5073099;28;20131;-67
2022/11/01 02:01:12;;;;;;;22.15;5.15;;;;;;;15.30;100.00;164565.66;5069703;28;20032;-67
2022/11/01 02:03:39;;;;;;;12.07;5.10;;;;;;;15.34;100.00;164577.78;5071080;28;20496;-67
2022/11/01 02:06:10;;;;;;;12.13;6.75;;;;;;;15.40;100.00;164592.69;5079993;28;20032;-67
2022/11/01 02:08:40;;;;;;;10.55;4.50;;;;;;;15.47;100.00;164611.66;5081472;28;20214;-67
2022/11/01 02:11:08;;;;;;;12.95;6.55;;;;;;;15.42;100.00;164598.13;5084991;28;20115;-67
2022/11/01 02:13:34;;;;;;;8.88;4.68;;;;;;;15.47;100.00;164611.66;5085091;28;20048;-67
2022/11/01 02:16:29;;;;;;;13.52;5.38;;;;;;;15.64;100.00;164654.97;5090597;28;20020;-67
2022/11/01 02:19:35;;;;;;;8.55;4.93;;;;;;;15.75;100.00;164683.41;5050460;28;20138;-67
2022/11/01 02:22:13;;;;;;;14.57;5.78;;;;;;;15.82;100.00;164703.69;5026749;28;20045;-66
2022/11/01 02:24:44;;;;;;;12.60;5.43;;;;;;;15.88;100.00;164717.31;5065402;28;20041;-66
2022/11/01 02:27:33;;;;;;;8.07;4.18;;;;;;;15.92;100.00;164729.50;5069032;28;20036;-67
2022/11/01 02:30:15;;;;;;;13.55;5.05;;;;;;;15.86;100.00;164714.59;5089837;28;20127;-67
2022/11/01 02:33:02;;;;;;;12.65;5.68;;;;;;;15.79;100.00;164695.59;5088283;28;20055;-67
2022/11/01 02:35:54;;;;;;;6.18;4.32;;;;;;;15.75;100.00;164684.75;5090813;28;20028;-67
2022/11/01 02:38:30;;;;;;;10.35;5.40;;;;;;;15.67;100.00;164663.13;5078066;28;20059;-67
2022/11/01 02:41:07;;;;;;;7.80;4.72;;;;;;;15.54;100.00;164630.59;5071409;28;20507;-66
2022/11/01 02:43:37;;;;;;;13.10;5.90;;;;;;;15.44;100.00;164603.56;5069278;28;20044;-67
2022/11/01 02:46:59;;;;;;;14.20;6.40;;;;;;;15.39;100.00;164589.97;5071903;28;20111;-67
2022/11/01 02:48:52;;;;;;;17.65;7.07;;;;;;;15.32;100.00;164571.03;5076478;28;20505;-65
2022/11/01 02:51:20;;;;;;;19.33;7.43;;;;;;;15.31;100.00;164568.31;5069143;28;20111;-66
2022/11/01 02:53:46;;;;;;;13.52;6.78;;;;;;;15.31;100.00;164568.31;5070717;28;20070;-66
2022/11/01 02:56:11;;;;;;;13.07;6.70;;;;;;;15.33;100.00;164573.75;5075983;28;20439;-65
2022/11/01 02:58:37;;;;;;;14.82;6.25;;;;;;;15.34;100.00;164576.47;5078958;28;20024;-65
2022/11/01 03:01:13;;;;;;;13.30;6.10;;;;;;;15.37;100.00;164584.59;5070306;28;20374;-66
2022/11/01 03:03:41;;;;;;;15.60;6.00;;;;;;;15.37;100.00;164584.59;5068932;28;20135;-66
2022/11/01 03:06:14;;;;;;;16.50;6.95;;;;;;;15.37;100.00;164584.59;5070244;28;20020;-66
2022/11/01 03:08:48;;;;;;;10.55;5.70;;;;;;;15.38;100.00;164587.25;5069031;28;20418;-66
2022/11/01 03:11:18;;;;;;;10.00;6.70;;;;;;;15.36;100.00;164581.88;5079798;28;20452;-67
2022/11/01 03:13:50;;;;;;;16.95;7.40;;;;;;;15.38;100.00;164587.25;5090780;28;20411;-64
2022/11/01 03:16:29;;;;;;;17.65;5.82;;;;;;;15.35;100.00;164579.16;5069839;28;20111;-64
2022/11/01 03:19:05;;;;;;;11.93;6.18;;;;;;;15.23;100.00;164549.38;5084348;28;20031;-65
2022/11/01 03:21:37;;;;;;;16.80;5.30;;;;;;;15.15;100.00;164527.72;5068929;28;20047;-65
2022/11/01 03:24:17;;;;;;;11.02;7.13;;;;;;;15.10;100.00;164514.19;5070250;28;20103;-64
2022/11/01 03:26:48;;;;;;;10.73;6.60;;;;;;;15.06;100.00;164503.38;5082593;28;20051;-64
2022/11/01 03:29:16;;;;;;;14.10;6.75;;;;;;;14.98;100.00;164481.72;5073887;28;20054;-67
2022/11/01 03:31:43;;;;;;;13.45;8.13;;;;;;;14.96;100.00;164476.28;5072495;28;20408;-67
2022/11/01 03:34:13;;;;;;;10.55;5.00;;;;;;;14.86;100.00;164450.59;5073596;28;20024;-67
2022/11/01 03:36:44;;;;;;;19.83;7.65;;;;;;;14.81;100.00;164437.06;5075968;28;20510;-67
2022/11/01 03:39:21;;;;;;;12.98;6.55;;;;;;;14.76;100.00;164424.88;5080257;28;20032;-67
2022/11/01 03:41:50;;;;;;;11.05;5.03;;;;;;;14.78;100.00;164430.25;5072222;28;20044;-66
2022/11/01 03:44:17;;;;;;;28.42;7.43;;;;;;;14.81;100.00;164437.06;5074083;28;20490;-67
2022/11/01 03:46:42;;;;;;;17.08;6.00;;;;;;;14.84;100.00;164446.53;5075810;28;20497;-66
2022/11/01 03:49:08;;;;;;;15.02;6.80;;;;;;;14.83;100.00;164442.44;5093470;28;20103;-67
2022/11/01 03:51:33;;;;;;;15.65;5.88;;;;;;;14.84;100.00;164446.53;5092674;28;20060;-67
2022/11/01 03:53:58;;;;;;;8.63;5.65;;;;;;;14.80;100.00;164435.69;5080154;28;20073;-67
2022/11/01 03:56:24;;;;;;;17.50;7.60;;;;;;;14.84;100.00;164446.53;5088304;28;20028;-67
2022/11/01 03:58:49;;;;;;;16.65;5.72;;;;;;;14.90;100.00;164462.78;5073751;28;20032;-66
2022/11/01 04:01:16;;;;;;;17.33;8.10;;;;;;;14.91;100.00;164465.50;5071722;28;20032;-66
2022/11/01 04:03:42;;;;;;;11.40;5.45;;;;;;;14.90;100.00;164461.38;5077396;28;20055;-66
2022/11/01 04:06:08;;;;;;;8.32;5.22;;;;;;;14.99;100.00;164484.44;5093749;28;20121;-67
2022/11/01 04:08:35;;;;;;;12.85;6.35;;;;;;;14.96;100.00;164476.28;5085716;28;20036;-67
2022/11/01 04:11:01;;;;;;;12.73;5.78;;;;;;;14.96;100.00;164477.69;5092740;28;20544;-67
2022/11/01 04:13:26;;;;;;;9.60;5.47;;;;;;;15.02;100.00;164493.91;5082518;28;20032;-67
2022/11/01 04:21:21;;;;;;;16.10;6.22;;;;;;;15.07;100.00;164506.09;5091784;28;20067;-64
2022/11/01 04:23:47;;;;;;;33.13;7.85;;;;;;;15.05;100.00;164500.66;5082086;28;20388;-64
2022/11/01 04:26:21;;;;;;;15.65;6.57;;;;;;;15.07;100.00;164506.09;5087154;28;20032;-64
2022/11/01 04:28:56;;;;;;;11.95;6.40;;;;;;;15.01;100.00;164489.81;5093160;28;20036;-64
2022/11/01 04:31:34;;;;;;;24.08;6.65;;;;;;;15.12;100.00;164519.59;5083564;28;20565;-64
2022/11/01 04:34:01;;;;;;;12.35;7.43;;;;;;;15.12;100.00;164519.59;5089620;28;20060;-64
2022/11/01 04:36:26;;;;;;;10.55;5.95;;;;;;;15.08;100.00;164508.75;5072016;28;20074;-65
2022/11/01 04:38:54;;;;;;;11.75;5.32;;;;;;;15.00;100.00;164488.47;5071852;28;20408;-64
2022/11/01 04:41:21;;;;;;;23.45;6.28;;;;;;;15.04;100.00;164497.94;5089735;28;20055;-64
2022/11/01 04:43:48;;;;;;;16.92;6.28;;;;;;;15.06;100.00;164503.38;5092936;28;20028;-64
2022/11/01 04:46:14;;;;;;;11.52;5.35;;;;;;;15.13;100.00;164522.31;5091406;28;20024;-66
2022/11/01 04:48:39;;;;;;;7.25;4.80;;;;;;;15.15;100.00;164527.72;5081165;28;20078;-67
2022/11/01 04:51:05;;;;;;;12.77;5.00;;;;;;;15.14;100.00;164525.03;5088189;28;20020;-66
2022/11/01 04:53:30;;;;;;;7.07;5.10;;;;;;;15.22;100.00;164546.72;5081113;28;20064;-67
2022/11/01 04:55:56;;;;;;;14.20;5.68;;;;;;;15.27;100.00;164557.50;5072268;28;20380;-68
2022/11/01 04:58:21;;;;;;;11.38;6.05;;;;;;;15.26;100.00;164554.78;5070847;28;20051;-66
2022/11/01 05:00:46;;;;;;;7.90;5.35;;;;;;;15.29;100.00;164562.94;5085416;28;20032;-67
2022/11/01 05:03:12;;;;;;;8.85;4.72;;;;;;;15.35;100.00;164579.16;5074717;28;20037;-66
2022/11/01 05:05:38;;;;;;;9.30;5.40;;;;;;;15.43;100.00;164600.84;5073815;28;20099;-66
2022/11/01 05:08:08;;;;;;;7.28;5.30;;;;;;;15.44;100.00;164603.56;5070696;28;20044;-65
2022/11/01 05:10:36;;;;;;;15.25;7.45;;;;;;;15.43;100.00;164599.47;5072031;28;20082;-67
2022/11/01 05:13:01;;;;;;;4.68;3.80;;;;;;;15.38;100.00;164588.66;5075461;28;20041;-65
2022/11/01 05:15:27;;;;;;;15.55;7.43;;;;;;;15.37;100.00;164584.59;5091007;28;20031;-63
2022/11/01 05:17:52;;;;;;;10.30;5.72;;;;;;;15.35;100.00;164579.16;5071299;28;20037;-64
2022/11/01 05:20:18;;;;;;;6.10;4.57;;;;;;;15.39;100.00;164589.97;5071769;28;20513;-65
2022/11/01 05:22:43;;;;;;;9.45;5.10;;;;;;;15.39;100.00;164589.97;5081060;28;20047;-64
2022/11/01 05:25:09;;;;;;;10.15;5.18;;;;;;;15.37;100.00;164584.59;5092012;28;20070;-65
2022/11/01 05:27:35;;;;;;;10.00;4.45;;;;;;;15.38;100.00;164587.25;5084403;28;20382;-65
2022/11/01 05:30:01;;;;;;;6.28;4.97;;;;;;;15.35;100.00;164579.16;5071871;28;20115;-64
2022/11/01 05:32:26;;;;;;;10.25;3.95;;;;;;;15.31;100.00;164568.31;5077234;28;20036;-63
2022/11/01 05:34:51;;;;;;;8.15;5.05;;;;;;;15.37;100.00;164584.59;5092154;28;20090;-63
2022/11/01 05:37:17;;;;;;;11.30;4.82;;;;;;;15.40;100.00;164592.69;5090394;28;20044;-63
2022/11/01 05:39:42;;;;;;;12.93;4.10;;;;;;;15.40;100.00;164592.69;5091912;28;20468;-64
2022/11/01 05:42:07;;;;;;;4.97;3.80;;;;;;;15.37;100.00;164584.59;5085949;28;20385;-64
2022/11/01 05:44:33;;;;;;;3.90;2.15;;;;;;;15.35;100.00;164579.16;5087869;28;20051;-63
2022/11/01 05:47:00;;;;;;;15.68;3.10;;;;;;;15.29;100.00;164562.94;5090082;28;20044;-64
2022/11/01 05:49:26;;;;;;;5.25;2.20;;;;;;;15.25;100.00;164552.09;5091335;28;20027;-64
2022/11/01 05:51:51;;;;;;;5.38;2.45;;;;;;;15.20;100.00;164541.28;5090387;28;20084;-63
2022/11/01 05:54:16;;;;;;;4.93;2.33;;;;;;;15.11;100.00;164515.56;5091150;28;20020;-64
2022/11/01 05:56:41;;;;;;;6.95;2.35;;;;;;;15.08;100.00;164508.75;5090230;28;20044;-64
2022/11/01 05:59:07;;;;;;;2.38;2.17;;;;;;;15.07;100.00;164506.09;5091632;28;20028;-64
2022/11/01 06:01:32;;;;;;;5.35;2.00;;;;;;;15.01;100.00;164489.81;5089713;28;20566;-64
2022/11/01 06:04:00;;;;;;;1.75;1.65;;;;;;;14.95;100.00;164473.56;5091515;28;20420;-64
2022/11/01 06:06:29;;;;;;;4.18;2.42;;;;;;;14.80;100.00;164435.69;5090014;28;20490;-63
2022/11/01 06:08:56;;;;;;;1.90;1.60;;;;;;;14.62;100.00;164386.94;5091241;28;20031;-63
2022/11/01 06:11:22;;;;;;;4.82;2.53;;;;;;;14.57;100.00;164374.78;5089657;28;20374;-63
2022/11/01 06:13:55;;;;;;;3.10;1.17;;;;;;;14.55;100.00;164370.72;5091480;28;20024;-63
2022/11/01 06:16:20;;;;;;;4.35;1.80;;;;;;;14.48;100.00;164351.78;5089415;28;20031;-62
2022/11/01 06:18:46;;;;;;;4.45;1.65;;;;;;;14.43;100.00;164338.22;5091408;28;20035;-63
2022/11/01 06:21:11;;;;;;;4.25;1.33;;;;;;;14.26;100.00;164294.91;5089700;28;20024;-62
2022/11/01 06:23:36;;;;;;;2.47;1.30;;;;;;;14.19;100.00;164275.97;5090767;28;20074;-63
2022/11/01 06:26:03;;;;;;;1.67;1.27;;;;;;;14.09;100.00;164250.28;5090957;28;20016;-62
2022/11/01 06:28:29;;;;;;;3.72;2.22;;;;;;;14.05;100.00;164238.09;5089681;28;20054;-63
2022/11/01 06:30:54;;;;;;;4.13;2.17;;;;;;;13.98;100.00;164219.16;5090706;28;20024;-63
2022/11/01 06:33:20;;;;;;;2.17;1.52;;;;;;;13.92;100.00;164205.66;5089218;28;20048;-63
2022/11/01 06:35:45;;;;;;;5.10;1.58;;;;;;;13.94;100.00;164209.69;5091170;28;20023;-63
2022/11/01 06:38:10;;;;;;;3.40;1.88;;;;;;;13.89;100.00;164197.53;5089046;28;20043;-63
2022/11/01 06:40:36;;;;;;;3.72;2.15;;;;;;;13.76;100.00;164163.75;5090992;28;20047;-63
2022/11/01 06:43:04;;;;;;;6.57;1.65;;;;;;;13.72;100.00;164151.56;5089207;28;20059;-63
2022/11/01 06:45:31;;;;;;;1.60;1.35;;;;;;;13.67;100.00;164138.00;5090795;28;20024;-63
2022/11/01 06:47:57;;;;;;;6.78;2.63;;;;;;;13.58;100.00;164115.03;5089103;28;20040;-63
2022/11/01 06:50:22;;;;;;;2.95;1.27;;;;;;;13.48;100.00;164089.34;5089304;28;20031;-63
2022/11/01 06:52:48;;;;;;;2.53;1.40;;;;;;;13.38;100.00;164063.69;5089185;28;20032;-63
2022/11/01 06:55:13;;;;;;;4.85;1.75;;;;;;;13.31;100.00;164044.69;5087154;28;20030;-63
2022/11/01 06:57:38;;;;;;;6.65;2.13;;;;;;;13.24;100.00;164027.09;5086178;28;20051;-63
2022/11/01 07:00:05;;;;;;;3.75;2.30;;;;;;;13.15;100.00;164002.75;5090310;28;20024;-63
2022/11/01 07:02:30;;;;;;;3.92;2.38;;;;;;;13.14;100.00;164000.09;5093043;28;20047;-63
2022/11/01 07:04:56;;;;;;;5.55;3.42;;;;;;;13.12;100.00;163994.66;5094945;28;20024;-63
2022/11/01 07:07:21;;;;;;;3.40;1.80;;;;;;;13.15;100.00;164002.75;5093130;28;20051;-63
2022/11/01 07:09:46;;;;;;;11.18;3.13;;;;;;;13.15;100.00;164002.75;5094373;28;20380;-63
2022/11/01 07:12:12;;;;;;;1.85;1.60;;;;;;;13.12;100.00;163994.66;5093261;28;20028;-63
2022/11/01 07:14:37;;;;;;;4.40;1.90;;;;;;;13.11;100.00;163991.97;5083232;28;20032;-63
2022/11/01 07:17:02;;;;;;;1.60;1.50;;;;;;;13.11;100.00;163991.97;5072508;28;20094;-63
2022/11/01 07:19:28;;;;;;;3.75;1.27;;;;;;;13.02;100.00;163970.31;5074384;28;20523;-63
2022/11/01 07:21:54;;;;;;;4.57;2.60;;;;;;;12.98;100.00;163959.53;5072807;28;20036;-63
2022/11/01 07:24:19;;;;;;;9.15;1.52;;;;;;;12.92;100.00;163943.28;5074116;28;20485;-63
2022/11/01 07:26:45;;;;;;;3.67;2.47;;;;;;;12.95;100.00;163951.41;5085482;28;20048;-63
2022/11/01 07:29:10;;;;;;;3.92;1.70;;;;;;;12.93;100.00;163945.97;5093989;28;20048;-63
2022/11/01 07:31:37;;;;;;;7.78;3.25;;;;;;;12.93;100.00;163945.97;5092811;28;20532;-62
2022/11/01 07:34:03;;;;;;;3.13;1.40;;;;;;;12.91;100.00;163940.63;5094520;28;20099;-63
2022/11/01 07:36:28;;;;;;;2.95;1.60;;;;;;;12.90;100.00;163937.91;5093296;28;20521;-62
2022/11/01 07:38:54;;;;;;;3.38;2.20;;;;;;;13.01;100.00;163967.63;5094102;28;20073;-63
2022/11/01 07:41:19;;;;;;;9.70;2.22;;;;;;;13.14;100.00;164000.09;5092507;28;20097;-62
2022/11/01 07:43:44;;;;;;;6.18;1.95;;;;;;;13.28;100.00;164036.56;5094165;28;20028;-63
2022/11/01 07:46:10;;;;;;;6.93;2.72;;;;;;;13.33;100.00;164051.44;5092233;28;20028;-62
2022/11/01 07:48:35;;;;;;;5.90;2.33;;;;;;;13.41;100.00;164070.44;5094395;28;20028;-63
2022/11/01 07:51:04;;;;;;;5.70;2.78;;;;;;;13.48;100.00;164089.34;5093874;28;20032;-63
2022/11/01 07:53:30;;;;;;;5.20;1.92;;;;;;;13.54;100.00;164104.25;5092261;28;20059;-63
2022/11/01 07:55:55;;;;;;;4.43;2.53;;;;;;;13.60;100.00;164120.47;5094112;28;20369;-63
2022/11/01 07:58:20;;;;;;;7.55;2.10;;;;;;;13.62;100.00;164127.22;5092451;28;20036;-63
2022/11/01 08:00:46;;;;;;;11.13;3.92;;;;;;;13.67;100.00;164138.00;5093631;28;20024;-63
2022/11/01 08:03:14;;;;;;;2.85;2.42;;;;;;;13.72;100.00;164151.56;5092128;28;20047;-63
2022/11/01 08:05:40;;;;;;;7.70;2.22;;;;;;;13.74;100.00;164156.94;5094044;28;20136;-63
2022/11/01 08:08:06;;;;;;;14.07;3.85;;;;;;;13.83;100.00;164179.97;5091935;28;20043;-63
2022/11/01 08:10:32;;;;;;;6.75;1.85;;;;;;;13.88;100.00;164194.84;5094035;28;20470;-63
2022/11/01 08:13:12;;;;;;;3.60;1.92;;;;;;;13.90;100.00;164198.91;5092205;28;20038;-63
2022/11/01 08:15:38;;;;;;;2.65;1.73;;;;;;;14.02;100.00;164231.34;5093413;28;20027;-63
2022/11/01 08:18:03;;;;;;;10.90;3.33;;;;;;;14.14;100.00;164262.47;5092095;28;20037;-63
2022/11/01 08:20:28;;;;;;;8.00;2.30;;;;;;;14.24;100.00;164289.53;5093905;28;20040;-63
2022/11/01 08:22:54;;;;;;;6.78;3.05;;;;;;;14.30;100.00;164304.38;5091678;28;20404;-63
2022/11/01 08:25:23;;;;;;;10.45;3.28;;;;;;;14.39;100.00;164328.75;5093526;28;20020;-63
2022/11/01 08:27:49;;;;;;;6.13;2.63;;;;;;;14.56;100.00;164373.38;5091870;28;20044;-63
2022/11/01 08:30:17;;;;;;;21.13;3.88;;;;;;;14.59;100.00;164381.53;5092903;28;20035;-63
2022/11/01 08:32:42;;;;;;;7.73;2.37;;;;;;;14.46;100.00;164346.34;5091813;28;20057;-63
2022/11/01 08:35:10;;;;;;;5.43;2.15;;;;;;;14.35;100.00;164316.56;5093021;28;20434;-62
2022/11/01 08:37:36;;;;;;;4.93;2.33;;;;;;;14.33;100.00;164311.19;5091576;28;20064;-62
2022/11/01 08:40:02;;;;;;;8.23;2.55;;;;;;;14.32;100.00;164308.47;5092971;28;20434;-63
2022/11/01 08:42:27;;;;;;;5.00;2.55;;;;;;;14.35;100.00;164316.56;5091873;28;20040;-62
2022/11/01 08:44:52;;;;;;;6.38;2.00;;;;;;;14.35;100.00;164316.56;5092686;28;20073;-63
2022/11/01 08:47:18;;;;;;;10.85;2.88;;;;;;;14.31;100.00;164305.75;5091334;28;20086;-62
2022/11/01 08:49:43;;;;;;;11.65;3.00;;;;;;;14.25;100.00;164292.25;5092908;28;20507;-62
2022/11/01 08:52:08;;;;;;;16.92;3.50;;;;;;;14.28;100.00;164300.34;5091072;28;20545;-62
2022/11/01 08:54:34;;;;;;;10.57;2.42;;;;;;;14.37;100.00;164322.00;5092827;28;20016;-62
2022/11/01 08:57:01;;;;;;;4.55;2.13;;;;;;;14.40;100.00;164330.13;5091268;28;20051;-62
2022/11/01 08:59:27;;;;;;;10.73;2.17;;;;;;;14.39;100.00;164328.75;5092545;28;20411;-62
2022/11/01 09:01:52;;;;;;;11.57;2.22;;;;;;;14.37;100.00;164323.31;5091528;28;20094;-63
2022/11/01 09:04:17;;;;;;;10.65;3.17;;;;;;;14.54;100.00;164368.00;5092356;28;20039;-62
2022/11/01 09:06:43;;;;;;;11.50;4.28;;;;;;;14.46;100.00;164346.34;5091087;28;20496;-63
2022/11/01 09:09:11;;;;;;;8.65;2.70;;;;;;;14.30;100.00;164304.38;5092585;28;20023;-63
2022/11/01 09:11:36;;;;;;;9.82;3.58;;;;;;;14.39;100.00;164327.41;5091279;28;20040;-63
2022/11/01 09:14:02;;;;;;;8.43;4.25;;;;;;;14.48;100.00;164351.78;5092060;28;20031;-63
2022/11/01 09:16:27;;;;;;;9.63;3.15;;;;;;;14.51;100.00;164359.88;5090959;28;20032;-62
2022/11/01 09:18:53;;;;;;;22.13;4.43;;;;;;;14.70;100.00;164408.66;5092696;28;20038;-62
2022/11/01 09:21:18;;;;;;;6.63;2.58;;;;;;;14.88;100.00;164457.34;5090618;28;20073;-62
2022/11/01 09:23:45;;;;;;;9.80;4.65;;;;;;;15.09;100.00;164511.47;5092053;28;20043;-63
2022/11/01 09:26:10;;;;;;;12.57;3.20;;;;;;;15.10;100.00;164514.19;5090975;28;20028;-61
2022/11/01 09:28:36;;;;;;;11.82;3.20;;;;;;;15.54;100.00;164630.59;5091899;28;20044;-63
2022/11/01 09:31:03;;;;;;;10.15;3.85;;;;;;;15.67;100.00;164663.13;5091889;28;20042;-60
2022/11/01 09:33:29;;;;;;;13.90;3.80;;;;;;;15.90;100.00;164724.09;5090805;28;20031;-63
2022/11/01 09:35:54;;;;;;;18.02;3.30;;;;;;;16.10;100.00;164776.91;5091965;28;20365;-63
2022/11/01 09:38:19;;;;;;;7.80;2.92;;;;;;;16.13;100.00;164785.00;5090433;28;20583;-63
2022/11/01 09:40:54;;;;;;;14.60;4.18;;;;;;;16.30;100.00;164828.34;5092311;28;20024;-63
2022/11/01 09:43:23;;;;;;;9.95;3.40;;;;;;;16.30;100.00;164828.34;5090018;28;20081;-63
2022/11/01 09:45:51;;;;;;;9.00;2.90;;;;;;;16.55;100.00;164893.38;5092216;28;20020;-63
2022/11/01 09:48:17;;;;;;;11.23;4.97;;;;;;;16.89;100.00;164982.78;5090284;28;20496;-63
2022/11/01 09:50:44;;;;;;;18.58;3.95;;;;;;;17.05;100.00;165026.19;5091343;28;20028;-63
2022/11/01 09:53:28;;;;;;;14.02;3.15;;;;;;;16.93;100.00;164993.69;5090173;28;20691;-63
2022/11/01 09:56:03;;;;;;;12.27;3.33;;;;;;;16.84;100.00;164969.25;5092245;28;20028;-63
2022/11/01 09:58:39;;;;;;;12.05;2.72;;;;;;;17.07;100.00;165031.63;5090091;28;20148;-63
2022/11/01 10:01:22;;;;;;;10.02;3.55;;;;;;;16.83;100.00;164966.53;5091492;28;20020;-63
2022/11/01 10:04:07;;;;;;;12.43;3.75;;;;;;;16.83;100.00;164966.53;5090296;28;20115;-64
2022/11/01 10:06:38;;;;;;;11.23;4.43;;;;;;;16.60;100.00;164906.91;5089860;28;20602;-64
2022/11/01 10:09:23;;;;;;;12.18;3.00;;;;;;;16.24;100.00;164813.44;5087224;28;20020;-64
2022/11/01 10:12:02;;;;;;;8.10;2.85;;;;;;;16.06;100.00;164766.03;5089615;28;20048;-64
2022/11/01 10:15:04;;;;;;;15.45;4.00;;;;;;;15.81;100.00;164701.03;5091331;28;20042;-64
2022/11/01 10:17:47;;;;;;;11.40;4.25;;;;;;;15.44;100.00;164603.56;5089903;28;20377;-64
2022/11/01 10:20:14;;;;;;;10.07;2.97;;;;;;;15.50;100.00;164618.41;5090756;28;20064;-64
2022/11/01 10:22:43;;;;;;;13.93;3.42;;;;;;;15.52;100.00;164623.84;5089706;28;20040;-64
2022/11/01 10:25:19;;;;;;;12.02;2.65;;;;;;;15.70;100.00;164671.22;5091381;28;20093;-64
2022/11/01 10:27:57;;;;;;;11.52;3.55;;;;;;;15.86;100.00;164714.59;5089535;28;20070;-64
2022/11/01 10:30:23;;;;;;;18.27;5.37;;;;;;;15.83;100.00;164706.47;5090706;28;20108;-64
2022/11/01 10:33:26;;;;;;;11.40;4.25;;;;;;;16.03;100.00;164757.94;5089498;28;20040;-63
2022/11/01 10:35:57;;;;;;;11.88;3.85;;;;;;;15.96;100.00;164739.00;5089000;28;20480;-65
2022/11/01 10:38:40;;;;;;;26.27;5.20;;;;;;;16.09;100.00;164772.81;5089492;28;20085;-64
2022/11/01 10:41:24;;;;;;;18.58;5.72;;;;;;;16.21;100.00;164803.97;5090682;28;20028;-64
2022/11/01 10:43:59;;;;;;;14.27;5.55;;;;;;;16.21;100.00;164803.97;5089435;28;20036;-64
2022/11/01 10:46:30;;;;;;;23.20;5.07;;;;;;;16.26;100.00;164817.53;5089840;28;20031;-64
2022/11/01 10:49:03;;;;;;;11.43;3.45;;;;;;;16.51;100.00;164883.91;5091066;28;20032;-65
2022/11/01 10:51:32;;;;;;;14.35;3.72;;;;;;;16.48;100.00;164877.13;5089201;28;20020;-63
2022/11/01 10:54:02;;;;;;;16.67;5.95;;;;;;;16.68;100.00;164927.25;5090919;28;20020;-64
2022/11/01 10:56:33;;;;;;;12.23;4.60;;;;;;;16.47;100.00;164874.41;5089586;28;20020;-64
2022/11/01 10:59:17;;;;;;;10.90;3.08;;;;;;;16.09;100.00;164772.81;5090708;28;20024;-64
2022/11/01 11:01:44;;;;;;;13.52;3.30;;;;;;;16.05;100.00;164763.31;5089333;28;20115;-64
2022/11/01 11:04:14;;;;;;;8.35;4.05;;;;;;;16.04;100.00;164760.66;5090763;28;20035;-64
2022/11/01 11:06:41;;;;;;;14.02;3.45;;;;;;;15.88;100.00;164717.31;5089799;28;20036;-64
2022/11/01 11:09:17;;;;;;;11.20;3.80;;;;;;;15.82;100.00;164703.69;5090464;28;20492;-64
2022/11/01 11:11:45;;;;;;;8.93;3.83;;;;;;;15.79;100.00;164695.59;5088919;28;20067;-63
2022/11/01 11:14:12;;;;;;;7.28;2.78;;;;;;;15.76;100.00;164687.47;5089398;28;20537;-64
2022/11/01 11:16:57;;;;;;;14.13;5.88;;;;;;;15.88;100.00;164717.31;5088624;28;20531;-64
2022/11/01 11:19:25;;;;;;;8.18;2.72;;;;;;;15.84;100.00;164709.19;5088215;28;20024;-64
2022/11/01 11:21:52;;;;;;;12.40;3.85;;;;;;;15.78;100.00;164691.56;5072042;28;20094;-64
2022/11/01 11:24:38;;;;;;;14.27;4.13;;;;;;;15.69;100.00;164668.50;5075465;28;20047;-64